sensor_id;sensor_type;location;lat;lon;timestamp;pressure;altitude;pressure_sealevel;temperature;humidity
4576;BME280;2300;51.874;8.430;2022-09-30T00:00:52;99952.78;;;5.80;94.67
4576;BME280;2300;51.874;8.430;2022-09-30T00:03:22;99965.41;;;5.74;95.46
4576;BME280;2300;51.874;8.430;2022-09-30T00:05:55;99965.59;;;5.79;96.06
4576;BME280;2300;51.874;8.430;2022-09-30T00:08:21;99962.03;;;5.72;97.11
4576;BME280;2300;51.874;8.430;2022-09-30T00:10:57;99960.84;;;5.61;98.01
4576;BME280;2300;51.874;8.430;2022-09-30T00:13:24;99964.13;;;5.76;97.10
4576;BME280;2300;51.874;8.430;2022-09-30T00:15:51;99969.16;;;5.73;96.88
4576;BME280;2300;51.874;8.430;2022-09-30T00:18:17;99971.72;;;5.68;96.06
4576;BME280;2300;51.874;8.430;2022-09-30T00:20:45;99974.66;;;5.66;95.79
4576;BME280;2300;51.874;8.430;2022-09-30T00:23:12;99976.97;;;5.63;95.22
4576;BME280;2300;51.874;8.430;2022-09-30T00:25:38;99972.16;;;5.65;95.65
4576;BME280;2300;51.874;8.430;2022-09-30T00:28:05;99969.22;;;5.60;96.97
4576;BME280;2300;51.874;8.430;2022-09-30T00:30:32;99961.72;;;5.55;97.65
4576;BME280;2300;51.874;8.430;2022-09-30T00:32:58;99976.63;;;5.53;97.70
4576;BME280;2300;51.874;8.430;2022-09-30T00:35:25;99979.53;;;5.58;97.69
4576;BME280;2300;51.874;8.430;2022-09-30T00:37:53;99977.19;;;5.61;97.47
4576;BME280;2300;51.874;8.430;2022-09-30T00:40:20;99972.03;;;5.47;97.08
4576;BME280;2300;51.874;8.430;2022-09-30T00:42:47;99978.66;;;5.64;97.12
4576;BME280;2300;51.874;8.430;2022-09-30T00:45:14;99981.44;;;5.51;97.35
4576;BME280;2300;51.874;8.430;2022-09-30T00:47:48;99971.56;;;5.56;96.88
4576;BME280;2300;51.874;8.430;2022-09-30T00:50:22;99990.22;;;5.59;95.96
4576;BME280;2300;51.874;8.430;2022-09-30T00:52:54;99996.91;;;5.57;96.17
4576;BME280;2300;51.874;8.430;2022-09-30T00:55:36;100000.50;;;5.51;96.02
4576;BME280;2300;51.874;8.430;2022-09-30T00:58:06;99991.25;;;5.58;95.69
4576;BME280;2300;51.874;8.430;2022-09-30T01:00:34;99997.34;;;5.54;95.27
4576;BME280;2300;51.874;8.430;2022-09-30T01:03:01;99989.19;;;5.54;94.82
4576;BME280;2300;51.874;8.430;2022-09-30T01:05:31;100006.19;;;5.49;94.57
4576;BME280;2300;51.874;8.430;2022-09-30T01:08:02;100001.16;;;5.40;94.98
4576;BME280;2300;51.874;8.430;2022-09-30T01:10:29;99994.09;;;5.32;96.98
4576;BME280;2300;51.874;8.430;2022-09-30T01:12:56;99994.94;;;5.32;97.95
4576;BME280;2300;51.874;8.430;2022-09-30T01:15:30;99966.88;;;5.25;98.05
4576;BME280;2300;51.874;8.430;2022-09-30T01:18:05;99994.06;;;5.39;97.70
4576;BME280;2300;51.874;8.430;2022-09-30T01:21:04;99984.69;;;5.21;97.25
4576;BME280;2300;51.874;8.430;2022-09-30T01:26:44;99982.16;;;5.33;96.28
4576;BME280;2300;51.874;8.430;2022-09-30T01:29:44;99996.63;;;5.20;96.38
4576;BME280;2300;51.874;8.430;2022-09-30T01:32:22;99996.63;;;5.20;96.67
4576;BME280;2300;51.874;8.430;2022-09-30T01:35:01;99991.63;;;5.11;97.61
4576;BME280;2300;51.874;8.430;2022-09-30T01:37:39;100004.00;;;5.07;98.26
4576;BME280;2300;51.874;8.430;2022-09-30T01:40:17;99989.09;;;5.22;97.94
4576;BME280;2300;51.874;8.430;2022-09-30T01:42:53;99994.56;;;5.09;97.19
4576;BME280;2300;51.874;8.430;2022-09-30T01:45:29;100001.22;;;5.20;97.90
4576;BME280;2300;51.874;8.430;2022-09-30T01:48:04;99997.09;;;5.11;96.42
4576;BME280;2300;51.874;8.430;2022-09-30T01:50:41;100000.44;;;5.06;97.30
4576;BME280;2300;51.874;8.430;2022-09-30T01:53:14;100002.94;;;5.14;96.87
4576;BME280;2300;51.874;8.430;2022-09-30T01:55:49;100011.09;;;5.14;97.29
4576;BME280;2300;51.874;8.430;2022-09-30T01:58:21;99992.09;;;5.01;96.89
4576;BME280;2300;51.874;8.430;2022-09-30T02:00:54;99993.53;;;5.04;96.60
4576;BME280;2300;51.874;8.430;2022-09-30T02:03:28;100000.47;;;4.93;97.05
4576;BME280;2300;51.874;8.430;2022-09-30T02:06:01;99999.63;;;4.99;97.65
4576;BME280;2300;51.874;8.430;2022-09-30T02:08:33;100006.72;;;5.00;98.46
4576;BME280;2300;51.874;8.430;2022-09-30T02:11:05;100007.16;;;4.97;97.63
4576;BME280;2300;51.874;8.430;2022-09-30T02:13:38;100009.00;;;5.03;97.75
4576;BME280;2300;51.874;8.430;2022-09-30T02:16:13;100009.25;;;4.95;97.52
4576;BME280;2300;51.874;8.430;2022-09-30T02:18:47;100004.47;;;4.90;97.38
4576;BME280;2300;51.874;8.430;2022-09-30T02:21:20;100013.88;;;4.95;97.71
4576;BME280;2300;51.874;8.430;2022-09-30T02:23:52;100007.59;;;4.87;97.04
4576;BME280;2300;51.874;8.430;2022-09-30T02:26:23;100008.00;;;4.98;97.36
4576;BME280;2300;51.874;8.430;2022-09-30T02:28:53;99975.63;;;4.70;96.74
4576;BME280;2300;51.874;8.430;2022-09-30T02:31:25;100009.50;;;4.87;97.10
4576;BME280;2300;51.874;8.430;2022-09-30T02:33:57;100008.25;;;4.70;97.63
4576;BME280;2300;51.874;8.430;2022-09-30T02:36:28;100021.00;;;4.76;98.12
4576;BME280;2300;51.874;8.430;2022-09-30T02:39:00;100017.25;;;4.77;98.70
4576;BME280;2300;51.874;8.430;2022-09-30T02:41:29;100021.41;;;4.73;98.97
4576;BME280;2300;51.874;8.430;2022-09-30T02:43:59;100024.34;;;4.78;98.97
4576;BME280;2300;51.874;8.430;2022-09-30T02:46:33;100020.19;;;4.82;98.32
4576;BME280;2300;51.874;8.430;2022-09-30T02:49:08;100020.59;;;4.66;97.91
4576;BME280;2300;51.874;8.430;2022-09-30T02:51:41;99990.47;;;4.54;97.69
4576;BME280;2300;51.874;8.430;2022-09-30T02:54:16;100012.22;;;4.67;97.36
4576;BME280;2300;51.874;8.430;2022-09-30T02:56:51;100014.31;;;4.65;97.69
4576;BME280;2300;51.874;8.430;2022-09-30T02:59:20;100019.34;;;4.75;97.33
4576;BME280;2300;51.874;8.430;2022-09-30T03:01:47;100027.50;;;4.75;97.12
4576;BME280;2300;51.874;8.430;2022-09-30T03:04:19;100023.09;;;4.67;96.55
4576;BME280;2300;51.874;8.430;2022-09-30T03:06:47;100028.97;;;4.71;96.07
4576;BME280;2300;51.874;8.430;2022-09-30T03:09:14;100026.44;;;4.69;96.05
4576;BME280;2300;51.874;8.430;2022-09-30T03:11:40;100024.38;;;4.65;95.24
4576;BME280;2300;51.874;8.430;2022-09-30T03:14:17;100031.88;;;4.63;95.54
4576;BME280;2300;51.874;8.430;2022-09-30T03:17:05;100023.31;;;4.53;95.00
4576;BME280;2300;51.874;8.430;2022-09-30T03:19:52;100040.25;;;4.55;95.30
4576;BME280;2300;51.874;8.430;2022-09-30T03:22:35;100032.75;;;4.50;95.29
4576;BME280;2300;51.874;8.430;2022-09-30T03:25:17;100034.19;;;4.39;95.65
4576;BME280;2300;51.874;8.430;2022-09-30T03:27:55;100031.25;;;4.47;95.66
4576;BME280;2300;51.874;8.430;2022-09-30T03:30:28;100049.44;;;4.47;95.05
4576;BME280;2300;51.874;8.430;2022-09-30T03:33:06;100028.50;;;4.34;95.25
4576;BME280;2300;51.874;8.430;2022-09-30T03:35:44;100051.34;;;4.46;94.48
4576;BME280;2300;51.874;8.430;2022-09-30T03:38:22;100046.97;;;4.45;94.86
4576;BME280;2300;51.874;8.430;2022-09-30T03:40:58;100056.16;;;4.44;94.48
4576;BME280;2300;51.874;8.430;2022-09-30T03:43:32;100064.72;;;4.41;93.98
4576;BME280;2300;51.874;8.430;2022-09-30T03:46:03;100057.13;;;4.30;94.91
4576;BME280;2300;51.874;8.430;2022-09-30T03:48:32;100025.53;;;4.10;95.36
4576;BME280;2300;51.874;8.430;2022-09-30T03:51:02;100053.59;;;4.23;96.21
4576;BME280;2300;51.874;8.430;2022-09-30T03:53:30;100052.72;;;4.16;95.42
4576;BME280;2300;51.874;8.430;2022-09-30T03:56:02;100058.59;;;4.26;96.10
4576;BME280;2300;51.874;8.430;2022-09-30T03:58:29;100060.06;;;4.29;95.55
4576;BME280;2300;51.874;8.430;2022-09-30T04:00:55;100068.00;;;4.24;95.55
4576;BME280;2300;51.874;8.430;2022-09-30T04:03:23;100064.69;;;4.28;94.67
4576;BME280;2300;51.874;8.430;2022-09-30T04:05:50;100061.69;;;4.10;94.30
4576;BME280;2300;51.874;8.430;2022-09-30T04:08:18;100043.72;;;4.02;94.27
4576;BME280;2300;51.874;8.430;2022-09-30T04:10:46;100079.50;;;4.19;94.45
4576;BME280;2300;51.874;8.430;2022-09-30T04:13:12;100028.00;;;3.91;93.65
4576;BME280;2300;51.874;8.430;2022-09-30T04:15:39;100044.13;;;3.93;93.73
4576;BME280;2300;51.874;8.430;2022-09-30T04:18:06;100013.75;;;3.76;92.86
4576;BME280;2300;51.874;8.430;2022-09-30T04:20:33;100011.81;;;3.63;93.87
4576;BME280;2300;51.874;8.430;2022-09-30T04:23:00;100068.97;;;3.96;93.87
4576;BME280;2300;51.874;8.430;2022-09-30T04:25:28;100079.47;;;4.06;93.23
4576;BME280;2300;51.874;8.430;2022-09-30T04:27:55;100085.47;;;3.95;93.57
4576;BME280;2300;51.874;8.430;2022-09-30T04:30:21;100058.47;;;3.80;93.95
4576;BME280;2300;51.874;8.430;2022-09-30T04:32:48;99993.94;;;3.28;94.93
4576;BME280;2300;51.874;8.430;2022-09-30T04:35:14;100086.91;;;3.84;95.75
4576;BME280;2300;51.874;8.430;2022-09-30T04:37:41;100093.22;;;3.91;96.65
4576;BME280;2300;51.874;8.430;2022-09-30T04:40:09;100094.44;;;3.89;95.83
4576;BME280;2300;51.874;8.430;2022-09-30T04:42:37;100094.44;;;3.89;95.47
4576;BME280;2300;51.874;8.430;2022-09-30T04:45:04;100107.78;;;3.77;95.91
4576;BME280;2300;51.874;8.430;2022-09-30T04:47:31;100103.00;;;3.86;96.29
4576;BME280;2300;51.874;8.430;2022-09-30T04:49:57;100111.53;;;3.76;96.08
4576;BME280;2300;51.874;8.430;2022-09-30T04:52:24;100114.22;;;3.70;96.08
4576;BME280;2300;51.874;8.430;2022-09-30T04:54:50;100119.06;;;3.81;95.97
4576;BME280;2300;51.874;8.430;2022-09-30T04:57:17;100124.09;;;3.84;95.52
4576;BME280;2300;51.874;8.430;2022-09-30T04:59:45;100122.88;;;3.86;94.98
4576;BME280;2300;51.874;8.430;2022-09-30T05:02:12;100127.47;;;3.86;94.62
4576;BME280;2300;51.874;8.430;2022-09-30T05:04:39;100130.38;;;3.84;94.21
4576;BME280;2300;51.874;8.430;2022-09-30T05:07:05;100095.16;;;3.56;94.15
4576;BME280;2300;51.874;8.430;2022-09-30T05:09:33;100131.63;;;3.82;94.84
4576;BME280;2300;51.874;8.430;2022-09-30T05:12:00;100138.50;;;3.84;94.39
4576;BME280;2300;51.874;8.430;2022-09-30T05:14:28;100127.63;;;3.78;93.88
4576;BME280;2300;51.874;8.430;2022-09-30T05:16:56;100140.56;;;3.76;94.56
4576;BME280;2300;51.874;8.430;2022-09-30T05:19:22;100129.00;;;3.60;95.12
4576;BME280;2300;51.874;8.430;2022-09-30T05:21:49;100146.41;;;3.73;94.84
4576;BME280;2300;51.874;8.430;2022-09-30T05:24:16;100155.00;;;3.76;95.21
4576;BME280;2300;51.874;8.430;2022-09-30T05:26:42;100158.13;;;3.80;94.94
4576;BME280;2300;51.874;8.430;2022-09-30T05:29:09;100144.09;;;3.70;94.17
4576;BME280;2300;51.874;8.430;2022-09-30T05:31:36;100157.53;;;3.78;93.37
4576;BME280;2300;51.874;8.430;2022-09-30T05:34:04;100157.28;;;3.73;94.53
4576;BME280;2300;51.874;8.430;2022-09-30T05:36:31;100157.28;;;3.73;93.41
4576;BME280;2300;51.874;8.430;2022-09-30T05:38:57;100166.69;;;3.77;93.86
4576;BME280;2300;51.874;8.430;2022-09-30T05:41:24;100159.91;;;3.59;93.72
4576;BME280;2300;51.874;8.430;2022-09-30T05:43:50;100174.75;;;3.63;94.46
4576;BME280;2300;51.874;8.430;2022-09-30T05:46:18;100164.72;;;3.57;96.08
4576;BME280;2300;51.874;8.430;2022-09-30T05:48:45;100174.94;;;3.55;96.74
4576;BME280;2300;51.874;8.430;2022-09-30T05:51:13;100167.03;;;3.60;97.43
4576;BME280;2300;51.874;8.430;2022-09-30T05:53:40;100177.09;;;3.67;97.31
4576;BME280;2300;51.874;8.430;2022-09-30T05:56:09;100166.59;;;3.63;98.12
4576;BME280;2300;51.874;8.430;2022-09-30T05:58:36;100182.16;;;3.76;97.88
4576;BME280;2300;51.874;8.430;2022-09-30T06:01:06;100180.88;;;3.72;97.70
4576;BME280;2300;51.874;8.430;2022-09-30T06:03:32;100176.75;;;3.83;98.55
4576;BME280;2300;51.874;8.430;2022-09-30T06:05:59;100139.88;;;3.60;98.34
4576;BME280;2300;51.874;8.430;2022-09-30T06:08:27;100175.13;;;3.95;97.88
4576;BME280;2300;51.874;8.430;2022-09-30T06:10:54;100173.88;;;3.91;98.64
4576;BME280;2300;51.874;8.430;2022-09-30T06:13:23;100184.59;;;3.99;99.34
4576;BME280;2300;51.874;8.430;2022-09-30T06:15:57;100193.38;;;4.07;98.84
4576;BME280;2300;51.874;8.430;2022-09-30T06:18:24;100182.69;;;3.99;98.28
4576;BME280;2300;51.874;8.430;2022-09-30T06:20:52;100188.00;;;4.14;98.63
4576;BME280;2300;51.874;8.430;2022-09-30T06:23:20;100191.78;;;4.20;98.29
4576;BME280;2300;51.874;8.430;2022-09-30T06:25:50;100187.81;;;4.22;99.14
4576;BME280;2300;51.874;8.430;2022-09-30T06:28:17;100203.09;;;4.30;98.56
4576;BME280;2300;51.874;8.430;2022-09-30T06:30:44;100208.38;;;4.38;98.80
4576;BME280;2300;51.874;8.430;2022-09-30T06:33:11;100194.59;;;4.39;98.39
4576;BME280;2300;51.874;8.430;2022-09-30T06:35:39;100212.63;;;4.54;98.66
4576;BME280;2300;51.874;8.430;2022-09-30T06:38:06;100215.13;;;4.62;98.14
4576;BME280;2300;51.874;8.430;2022-09-30T06:40:33;100225.63;;;4.65;98.46
4576;BME280;2300;51.874;8.430;2022-09-30T06:43:02;100220.41;;;4.70;99.13
4576;BME280;2300;51.874;8.430;2022-09-30T06:45:29;100221.88;;;4.79;99.09
4576;BME280;2300;51.874;8.430;2022-09-30T06:47:57;100233.22;;;4.89;98.84
4576;BME280;2300;51.874;8.430;2022-09-30T06:50:24;100225.91;;;4.96;99.20
4576;BME280;2300;51.874;8.430;2022-09-30T06:52:50;100225.94;;;5.03;99.23
4576;BME280;2300;51.874;8.430;2022-09-30T06:55:17;100232.00;;;5.11;99.37
4576;BME280;2300;51.874;8.430;2022-09-30T06:57:45;100222.97;;;5.04;98.19
4576;BME280;2300;51.874;8.430;2022-09-30T07:00:13;100236.81;;;5.29;98.70
4576;BME280;2300;51.874;8.430;2022-09-30T07:02:40;100227.81;;;5.28;98.89
4576;BME280;2300;51.874;8.430;2022-09-30T07:05:08;100231.56;;;5.41;98.61
4576;BME280;2300;51.874;8.430;2022-09-30T07:07:35;100232.81;;;5.45;98.41
4576;BME280;2300;51.874;8.430;2022-09-30T07:10:03;100236.41;;;5.52;98.55
4576;BME280;2300;51.874;8.430;2022-09-30T07:12:29;100235.13;;;5.61;98.45
4576;BME280;2300;51.874;8.430;2022-09-30T07:14:56;100225.06;;;5.61;98.27
4576;BME280;2300;51.874;8.430;2022-09-30T07:17:25;100237.00;;;5.73;99.08
4576;BME280;2300;51.874;8.430;2022-09-30T07:19:52;100235.31;;;5.79;99.03
4576;BME280;2300;51.874;8.430;2022-09-30T07:22:19;100245.34;;;5.98;99.12
4576;BME280;2300;51.874;8.430;2022-09-30T07:24:56;100248.66;;;6.07;98.52
4576;BME280;2300;51.874;8.430;2022-09-30T07:27:23;100232.31;;;6.07;98.17
4576;BME280;2300;51.874;8.430;2022-09-30T07:29:51;100244.44;;;6.17;98.61
4576;BME280;2300;51.874;8.430;2022-09-30T07:32:18;100258.06;;;6.31;98.99
4576;BME280;2300;51.874;8.430;2022-09-30T07:34:47;100240.38;;;6.40;99.11
4576;BME280;2300;51.874;8.430;2022-09-30T07:37:15;100247.03;;;6.57;99.21
4576;BME280;2300;51.874;8.430;2022-09-30T07:39:44;100249.31;;;6.60;98.97
4576;BME280;2300;51.874;8.430;2022-09-30T07:42:12;100250.91;;;6.74;98.76
4576;BME280;2300;51.874;8.430;2022-09-30T07:44:39;100259.09;;;6.87;98.11
4576;BME280;2300;51.874;8.430;2022-09-30T07:47:09;100246.00;;;6.96;98.13
4576;BME280;2300;51.874;8.430;2022-09-30T07:49:36;100256.69;;;7.04;98.59
4576;BME280;2300;51.874;8.430;2022-09-30T07:52:05;100262.44;;;7.21;98.44
4576;BME280;2300;51.874;8.430;2022-09-30T07:54:33;100267.47;;;7.24;98.55
4576;BME280;2300;51.874;8.430;2022-09-30T07:57:02;100269.88;;;7.38;98.32
4576;BME280;2300;51.874;8.430;2022-09-30T07:59:30;100267.25;;;7.50;98.65
4576;BME280;2300;51.874;8.430;2022-09-30T08:01:57;100274.13;;;7.59;97.50
4576;BME280;2300;51.874;8.430;2022-09-30T08:04:25;100279.28;;;7.67;97.63
4576;BME280;2300;51.874;8.430;2022-09-30T08:06:54;100283.88;;;7.73;97.48
4576;BME280;2300;51.874;8.430;2022-09-30T08:09:24;100285.09;;;7.77;97.63
4576;BME280;2300;51.874;8.430;2022-09-30T08:11:50;100286.66;;;7.92;97.56
4576;BME280;2300;51.874;8.430;2022-09-30T08:14:19;100266.47;;;7.93;97.51
4576;BME280;2300;51.874;8.430;2022-09-30T08:16:46;100279.63;;;8.20;97.66
4576;BME280;2300;51.874;8.430;2022-09-30T08:19:15;100280.34;;;8.34;97.47
4576;BME280;2300;51.874;8.430;2022-09-30T08:21:43;100287.91;;;8.50;97.61
4576;BME280;2300;51.874;8.430;2022-09-30T08:24:11;100282.69;;;8.67;97.61
4576;BME280;2300;51.874;8.430;2022-09-30T08:26:39;100287.13;;;8.98;97.11
4576;BME280;2300;51.874;8.430;2022-09-30T08:29:06;100285.06;;;9.23;98.09
4576;BME280;2300;51.874;8.430;2022-09-30T08:31:32;100292.19;;;9.42;97.20
4576;BME280;2300;51.874;8.430;2022-09-30T08:33:59;100289.97;;;9.63;95.87
4576;BME280;2300;51.874;8.430;2022-09-30T08:36:27;100288.91;;;9.87;94.66
4576;BME280;2300;51.874;8.430;2022-09-30T08:38:54;100286.66;;;10.07;91.48
4576;BME280;2300;51.874;8.430;2022-09-30T08:41:31;100289.53;;;10.35;91.29
4576;BME280;2300;51.874;8.430;2022-09-30T08:44:13;100290.19;;;10.66;89.87
4576;BME280;2300;51.874;8.430;2022-09-30T08:46:46;100287.66;;;11.04;86.53
4576;BME280;2300;51.874;8.430;2022-09-30T08:49:41;100304.75;;;11.35;85.84
4576;BME280;2300;51.874;8.430;2022-09-30T08:52:16;100304.63;;;11.58;83.73
4576;BME280;2300;51.874;8.430;2022-09-30T08:54:47;100294.41;;;11.70;82.22
4576;BME280;2300;51.874;8.430;2022-09-30T08:57:15;100300.41;;;11.84;81.53
4576;BME280;2300;51.874;8.430;2022-09-30T08:59:46;100299.56;;;12.17;82.46
4576;BME280;2300;51.874;8.430;2022-09-30T09:02:17;100295.44;;;12.36;80.95
4576;BME280;2300;51.874;8.430;2022-09-30T09:04:47;100292.94;;;12.34;80.11
4576;BME280;2300;51.874;8.430;2022-09-30T09:07:25;100292.75;;;12.41;80.66
4576;BME280;2300;51.874;8.430;2022-09-30T09:10:06;100282.53;;;12.58;80.57
4576;BME280;2300;51.874;8.430;2022-09-30T09:12:44;100265.28;;;12.46;79.89
4576;BME280;2300;51.874;8.430;2022-09-30T09:15:22;100291.97;;;12.84;79.01
4576;BME280;2300;51.874;8.430;2022-09-30T09:18:12;100279.22;;;13.00;80.16
4576;BME280;2300;51.874;8.430;2022-09-30T09:20:52;100284.13;;;13.19;79.45
4576;BME280;2300;51.874;8.430;2022-09-30T09:23:19;100278.56;;;13.41;80.07
4576;BME280;2300;51.874;8.430;2022-09-30T09:25:47;100265.97;;;13.50;76.41
4576;BME280;2300;51.874;8.430;2022-09-30T09:28:27;100280.28;;;13.79;76.33
4576;BME280;2300;51.874;8.430;2022-09-30T09:30:59;100278.88;;;13.76;76.01
4576;BME280;2300;51.874;8.430;2022-09-30T09:33:28;100280.56;;;13.77;75.52
4576;BME280;2300;51.874;8.430;2022-09-30T09:36:07;100276.47;;;13.85;75.26
4576;BME280;2300;51.874;8.430;2022-09-30T09:38:49;100270.72;;;13.92;75.70
4576;BME280;2300;51.874;8.430;2022-09-30T09:41:29;100280.91;;;14.18;74.79
4576;BME280;2300;51.874;8.430;2022-09-30T09:44:04;100262.66;;;14.17;72.68
4576;BME280;2300;51.874;8.430;2022-09-30T09:46:40;100268.00;;;14.34;74.58
4576;BME280;2300;51.874;8.430;2022-09-30T09:49:28;100278.06;;;14.50;74.01
4576;BME280;2300;51.874;8.430;2022-09-30T09:54:57;100270.72;;;14.76;71.24
4576;BME280;2300;51.874;8.430;2022-09-30T09:57:25;100274.03;;;14.83;71.94
4576;BME280;2300;51.874;8.430;2022-09-30T09:59:58;100283.47;;;14.87;73.46
4576;BME280;2300;51.874;8.430;2022-09-30T10:02:27;100280.72;;;14.92;71.08
4576;BME280;2300;51.874;8.430;2022-09-30T10:04:54;100275.50;;;14.95;71.56
4576;BME280;2300;51.874;8.430;2022-09-30T10:07:28;100272.75;;;15.05;73.03
4576;BME280;2300;51.874;8.430;2022-09-30T10:10:14;100269.78;;;15.17;72.50
4576;BME280;2300;51.874;8.430;2022-09-30T10:12:42;100268.94;;;15.17;71.28
4576;BME280;2300;51.874;8.430;2022-09-30T10:15:21;100252.09;;;15.23;70.75
4576;BME280;2300;51.874;8.430;2022-09-30T10:17:55;100277.88;;;15.49;70.66
4576;BME280;2300;51.874;8.430;2022-09-30T10:20:26;100272.63;;;15.58;71.46
4576;BME280;2300;51.874;8.430;2022-09-30T10:23:00;100266.81;;;15.74;69.96
4576;BME280;2300;51.874;8.430;2022-09-30T10:25:28;100249.06;;;15.70;69.65
4576;BME280;2300;51.874;8.430;2022-09-30T10:27:57;100269.84;;;15.88;69.85
4576;BME280;2300;51.874;8.430;2022-09-30T10:30:46;100269.56;;;16.00;69.21
4576;BME280;2300;51.874;8.430;2022-09-30T10:33:22;100274.81;;;15.96;69.79
4576;BME280;2300;51.874;8.430;2022-09-30T10:35:52;100269.00;;;16.03;67.77
4576;BME280;2300;51.874;8.430;2022-09-30T10:38:21;100272.59;;;16.08;69.04
4576;BME280;2300;51.874;8.430;2022-09-30T10:40:49;100268.75;;;16.19;68.08
4576;BME280;2300;51.874;8.430;2022-09-30T10:43:22;100269.31;;;16.11;68.27
4576;BME280;2300;51.874;8.430;2022-09-30T10:45:50;100272.09;;;16.11;69.66
4576;BME280;2300;51.874;8.430;2022-09-30T10:48:21;100260.44;;;16.14;68.59
4576;BME280;2300;51.874;8.430;2022-09-30T10:50:51;100283.13;;;16.31;69.14
4576;BME280;2300;51.874;8.430;2022-09-30T10:53:21;100272.03;;;16.42;68.65
4576;BME280;2300;51.874;8.430;2022-09-30T10:55:50;100261.75;;;16.52;66.03
4576;BME280;2300;51.874;8.430;2022-09-30T10:58:27;100266.94;;;16.69;65.60
4576;BME280;2300;51.874;8.430;2022-09-30T11:00:59;100269.19;;;16.67;62.95
4576;BME280;2300;51.874;8.430;2022-09-30T11:03:33;100256.50;;;16.46;65.18
4576;BME280;2300;51.874;8.430;2022-09-30T11:06:03;100257.63;;;16.40;66.47
4576;BME280;2300;51.874;8.430;2022-09-30T11:08:36;100243.19;;;16.38;65.18
4576;BME280;2300;51.874;8.430;2022-09-30T11:11:09;100257.06;;;16.48;65.71
4576;BME280;2300;51.874;8.430;2022-09-30T11:13:41;100247.91;;;16.47;66.42
4576;BME280;2300;51.874;8.430;2022-09-30T11:16:16;100257.78;;;16.73;65.49
4576;BME280;2300;51.874;8.430;2022-09-30T11:18:51;100249.50;;;16.68;64.75
4576;BME280;2300;51.874;8.430;2022-09-30T11:21:24;100270.81;;;16.78;65.25
4576;BME280;2300;51.874;8.430;2022-09-30T11:23:57;100263.53;;;16.87;63.69
4576;BME280;2300;51.874;8.430;2022-09-30T11:26:33;100260.75;;;16.92;65.53
4576;BME280;2300;51.874;8.430;2022-09-30T11:29:12;100255.44;;;16.96;64.55
4576;BME280;2300;51.874;8.430;2022-09-30T11:31:48;100249.59;;;17.07;64.25
4576;BME280;2300;51.874;8.430;2022-09-30T11:34:34;100259.59;;;17.03;61.94
4576;BME280;2300;51.874;8.430;2022-09-30T11:37:13;100263.00;;;16.80;62.59
4576;BME280;2300;51.874;8.430;2022-09-30T11:40:02;100239.22;;;16.64;62.93
4576;BME280;2300;51.874;8.430;2022-09-30T11:42:39;100240.66;;;16.61;63.87
4576;BME280;2300;51.874;8.430;2022-09-30T11:45:20;100249.78;;;16.67;63.21
4576;BME280;2300;51.874;8.430;2022-09-30T11:48:00;100254.69;;;16.80;60.85
4576;BME280;2300;51.874;8.430;2022-09-30T11:50:45;100263.81;;;16.86;62.05
4576;BME280;2300;51.874;8.430;2022-09-30T11:53:24;100252.19;;;16.84;62.43
4576;BME280;2300;51.874;8.430;2022-09-30T11:56:10;100245.53;;;16.85;63.46
4576;BME280;2300;51.874;8.430;2022-09-30T11:58:42;100253.00;;;16.94;62.32
4576;BME280;2300;51.874;8.430;2022-09-30T12:01:16;100253.00;;;16.94;62.39
4576;BME280;2300;51.874;8.430;2022-09-30T12:03:50;100250.19;;;16.99;61.84
4576;BME280;2300;51.874;8.430;2022-09-30T12:06:25;100254.94;;;16.89;60.99
4576;BME280;2300;51.874;8.430;2022-09-30T12:08:55;100253.94;;;16.59;62.82
4576;BME280;2300;51.874;8.430;2022-09-30T12:11:31;100253.69;;;16.51;63.57
4576;BME280;2300;51.874;8.430;2022-09-30T12:14:03;100258.97;;;16.52;62.28
4576;BME280;2300;51.874;8.430;2022-09-30T12:16:32;100255.34;;;16.57;62.45
4576;BME280;2300;51.874;8.430;2022-09-30T12:19:04;100258.34;;;16.65;62.20
4576;BME280;2300;51.874;8.430;2022-09-30T12:21:42;100249.50;;;16.58;62.37
4576;BME280;2300;51.874;8.430;2022-09-30T12:24:17;100254.16;;;16.78;62.90
4576;BME280;2300;51.874;8.430;2022-09-30T12:26:47;100248.81;;;16.92;63.12
4576;BME280;2300;51.874;8.430;2022-09-30T12:29:17;100251.59;;;16.92;61.74
4576;BME280;2300;51.874;8.430;2022-09-30T12:32:23;100234.63;;;17.03;61.83
4576;BME280;2300;51.874;8.430;2022-09-30T12:35:03;100244.56;;;17.20;61.62
4576;BME280;2300;51.874;8.430;2022-09-30T12:37:44;100241.28;;;17.02;61.55
4576;BME280;2300;51.874;8.430;2022-09-30T12:40:42;100228.81;;;17.00;61.17
4576;BME280;2300;51.874;8.430;2022-09-30T12:43:35;100240.69;;;17.10;61.39
4576;BME280;2300;51.874;8.430;2022-09-30T12:46:12;100235.75;;;17.07;59.67
4576;BME280;2300;51.874;8.430;2022-09-30T12:48:43;100238.00;;;16.90;59.91
4576;BME280;2300;51.874;8.430;2022-09-30T12:51:20;100226.75;;;16.71;61.32
4576;BME280;2300;51.874;8.430;2022-09-30T12:53:56;100241.44;;;16.72;61.37
4576;BME280;2300;51.874;8.430;2022-09-30T12:56:26;100234.19;;;16.76;60.96
4576;BME280;2300;51.874;8.430;2022-09-30T12:58:54;100235.34;;;16.70;61.48
4576;BME280;2300;51.874;8.430;2022-09-30T13:01:26;100211.59;;;16.49;61.91
4576;BME280;2300;51.874;8.430;2022-09-30T13:04:13;100213.81;;;16.47;61.60
4576;BME280;2300;51.874;8.430;2022-09-30T13:10:01;100214.56;;;16.67;62.68
4576;BME280;2300;51.874;8.430;2022-09-30T13:13:14;100211.78;;;16.72;60.22
4576;BME280;2300;51.874;8.430;2022-09-30T13:15:44;100202.66;;;16.67;60.37
4576;BME280;2300;51.874;8.430;2022-09-30T13:21:23;100202.47;;;16.38;60.15
4576;BME280;2300;51.874;8.430;2022-09-30T13:23:51;100197.75;;;16.39;60.59
4576;BME280;2300;51.874;8.430;2022-09-30T13:26:38;100199.13;;;16.51;61.11
4576;BME280;2300;51.874;8.430;2022-09-30T13:29:35;100197.16;;;16.57;59.52
4576;BME280;2300;51.874;8.430;2022-09-30T13:32:07;100189.88;;;16.71;61.23
4576;BME280;2300;51.874;8.430;2022-09-30T13:34:56;100195.88;;;16.93;61.53
4576;BME280;2300;51.874;8.430;2022-09-30T13:37:35;100194.72;;;16.99;59.66
4576;BME280;2300;51.874;8.430;2022-09-30T13:40:03;100183.41;;;16.86;59.99
4576;BME280;2300;51.874;8.430;2022-09-30T13:42:37;100180.31;;;16.97;59.43
4576;BME280;2300;51.874;8.430;2022-09-30T13:45:11;100190.88;;;16.90;59.41
4576;BME280;2300;51.874;8.430;2022-09-30T13:47:44;100195.31;;;16.91;59.25
4576;BME280;2300;51.874;8.430;2022-09-30T13:50:16;100189.41;;;17.03;59.92
4576;BME280;2300;51.874;8.430;2022-09-30T13:52:47;100185.81;;;17.07;59.63
4576;BME280;2300;51.874;8.430;2022-09-30T13:55:18;100172.78;;;17.03;59.19
4576;BME280;2300;51.874;8.430;2022-09-30T13:57:56;100175.84;;;17.01;59.25